createdAt,value
2023-04-18T00:00:55.198Z,36.90
2023-04-18T00:01:55.337Z,36.96
2023-04-18T00:02:55.509Z,36.80
2023-04-18T00:03:55.316Z,37.05
2023-04-18T00:04:55.288Z,36.79
2023-04-18T00:05:55.213Z,36.68
2023-04-18T00:06:55.236Z,36.68
2023-04-18T00:07:55.255Z,36.96
2023-04-18T00:08:55.305Z,36.99
2023-04-18T00:09:55.252Z,36.89
2023-04-18T00:10:55.253Z,36.73
2023-04-18T00:11:55.254Z,36.74
2023-04-18T00:12:55.264Z,36.65
2023-04-18T00:13:55.262Z,36.74
2023-04-18T00:14:55.316Z,36.65
2023-04-18T00:15:55.318Z,36.58
2023-04-18T00:16:55.337Z,36.54
2023-04-18T00:17:55.339Z,36.46
2023-04-18T00:18:55.327Z,36.55
2023-04-18T00:19:55.345Z,36.43
2023-04-18T00:20:55.313Z,36.42
2023-04-18T00:21:55.368Z,36.37
2023-04-18T00:22:55.360Z,36.43
2023-04-18T00:23:55.388Z,36.41
2023-04-18T00:24:55.401Z,36.45
2023-04-18T00:25:55.353Z,36.27
2023-04-18T00:26:55.373Z,36.28
2023-04-18T00:27:55.399Z,36.33
2023-04-18T00:28:55.432Z,36.21
2023-04-18T00:29:55.397Z,36.17
2023-04-18T00:30:55.488Z,36.18
2023-04-18T00:31:55.418Z,36.29
2023-04-18T00:32:55.503Z,36.19
2023-04-18T00:33:55.448Z,36.19
2023-04-18T00:34:55.467Z,36.20
2023-04-18T00:35:55.484Z,36.34
2023-04-18T00:36:55.504Z,36.17
2023-04-18T00:37:55.503Z,36.18
2023-04-18T00:38:55.469Z,36.13
2023-04-18T00:39:55.517Z,36.15
2023-04-18T00:40:55.525Z,36.24
2023-04-18T00:41:55.548Z,36.21
2023-04-18T00:42:55.580Z,36.13
2023-04-18T00:43:55.568Z,36.17
2023-04-18T00:44:55.597Z,35.99
2023-04-18T00:45:55.642Z,35.99
2023-04-18T00:46:55.615Z,36.05
2023-04-18T00:47:55.694Z,36.08
2023-04-18T00:48:55.658Z,36.04
2023-04-18T00:49:55.635Z,36.07
2023-04-18T00:50:55.631Z,36.06
2023-04-18T00:51:55.682Z,36.13
2023-04-18T00:52:55.690Z,36.12
2023-04-18T00:53:55.712Z,36.05
2023-04-18T00:54:55.744Z,36.05
2023-04-18T00:55:55.736Z,36.02
2023-04-18T00:56:55.746Z,35.99
2023-04-18T00:57:55.787Z,36.01
2023-04-18T00:58:55.783Z,36.05
2023-04-18T00:59:55.839Z,35.97
2023-04-18T01:00:55.820Z,35.96
2023-04-18T01:01:55.960Z,35.94
2023-04-18T01:02:56.036Z,35.97
2023-04-18T01:03:55.959Z,36.01
2023-04-18T01:04:55.891Z,36.05
2023-04-18T01:05:55.866Z,35.94
2023-04-18T01:06:55.921Z,35.99
2023-04-18T01:07:55.925Z,35.99
2023-04-18T01:08:55.930Z,36.06
2023-04-18T01:09:55.947Z,36.02
2023-04-18T01:10:55.974Z,35.89
2023-04-18T01:11:55.956Z,36.00
2023-04-18T01:12:56.008Z,35.96
2023-04-18T01:13:56.016Z,35.90
2023-04-18T01:14:56.056Z,35.87
2023-04-18T01:15:56.090Z,35.99
2023-04-18T01:16:56.046Z,35.92
2023-04-18T01:17:56.049Z,35.89
2023-04-18T01:18:56.082Z,35.83
2023-04-18T01:19:56.067Z,35.82
2023-04-18T01:20:56.078Z,35.85
2023-04-18T01:21:56.149Z,35.91
2023-04-18T01:22:56.146Z,35.84
2023-04-18T01:23:56.153Z,35.82
2023-04-18T01:24:56.179Z,35.84
2023-04-18T01:25:56.595Z,35.79
2023-04-18T01:26:56.209Z,35.81
2023-04-18T01:27:56.203Z,35.84
2023-04-18T01:28:56.229Z,35.88
2023-04-18T01:29:56.245Z,35.88
2023-04-18T01:30:56.310Z,35.91
2023-04-18T01:31:56.262Z,35.83
2023-04-18T01:32:56.355Z,35.75
2023-04-18T01:33:56.308Z,35.79
2023-04-18T01:34:56.346Z,35.70
2023-04-18T01:35:56.364Z,35.71
2023-04-18T01:36:56.367Z,35.70
2023-04-18T01:37:56.402Z,35.73
2023-04-18T01:38:56.401Z,35.66
2023-04-18T01:39:56.419Z,35.68
2023-04-18T01:40:56.425Z,35.64
2023-04-18T01:41:56.474Z,35.60
2023-04-18T01:42:56.511Z,35.61
2023-04-18T01:43:56.519Z,35.67
2023-04-18T01:44:56.541Z,35.65
2023-04-18T01:45:56.563Z,35.62
2023-04-18T01:46:56.705Z,35.61
2023-04-18T01:47:56.631Z,35.63
2023-04-18T01:48:56.612Z,35.69
2023-04-18T01:49:56.661Z,35.62
2023-04-18T01:50:56.672Z,35.61
2023-04-18T01:51:56.642Z,35.65
2023-04-18T01:52:56.671Z,35.62
2023-04-18T01:53:56.687Z,35.60
2023-04-18T01:54:56.711Z,35.65
2023-04-18T01:55:56.761Z,35.66
2023-04-18T01:56:56.786Z,35.61
2023-04-18T01:57:56.773Z,35.57
2023-04-18T01:58:56.784Z,35.55
2023-04-18T01:59:56.830Z,35.53
2023-04-18T02:00:56.853Z,35.56
2023-04-18T02:01:56.952Z,35.50
2023-04-18T02:02:57.069Z,35.55
2023-04-18T02:03:57.029Z,35.47
2023-04-18T02:04:56.933Z,35.41
2023-04-18T02:05:56.941Z,35.42
2023-04-18T02:06:56.987Z,35.46
2023-04-18T02:07:57.008Z,35.43
2023-04-18T02:08:57.014Z,35.39
2023-04-18T02:09:57.055Z,35.41
2023-04-18T02:10:57.089Z,35.41
2023-04-18T02:11:57.105Z,35.46
2023-04-18T02:12:57.129Z,35.47
2023-04-18T02:13:57.122Z,35.42
2023-04-18T02:14:57.177Z,35.39
2023-04-18T02:15:57.209Z,35.34
2023-04-18T02:16:57.204Z,35.32
2023-04-18T02:17:57.265Z,35.31
2023-04-18T02:18:57.265Z,35.35
2023-04-18T02:19:57.266Z,35.36
2023-04-18T02:20:57.314Z,35.28
2023-04-18T02:21:57.302Z,35.26
2023-04-18T02:22:57.376Z,35.15
2023-04-18T02:23:57.368Z,35.25
2023-04-18T02:24:57.384Z,35.30
2023-04-18T02:25:57.412Z,35.21
2023-04-18T02:26:57.439Z,35.25
2023-04-18T02:27:57.467Z,35.29
2023-04-18T02:28:57.501Z,35.28
2023-04-18T02:29:57.551Z,35.10
2023-04-18T02:30:57.552Z,35.21
2023-04-18T02:31:57.607Z,35.23
2023-04-18T02:32:57.586Z,35.23
2023-04-18T02:33:57.635Z,35.21
2023-04-18T02:34:57.644Z,35.18
2023-04-18T02:35:57.672Z,35.13
2023-04-18T02:36:57.690Z,35.14
2023-04-18T02:37:57.733Z,35.17
2023-04-18T02:38:57.758Z,35.15
2023-04-18T02:39:57.762Z,35.29
2023-04-18T02:40:57.768Z,35.25
2023-04-18T02:41:57.833Z,35.14
2023-04-18T02:42:57.811Z,35.12
2023-04-18T02:43:57.846Z,35.12
2023-04-18T02:44:57.898Z,35.00
2023-04-18T02:45:57.961Z,35.00
2023-04-18T02:46:57.932Z,35.08
2023-04-18T02:47:57.988Z,35.09
2023-04-18T02:48:57.989Z,35.01
2023-04-18T02:49:58.015Z,35.03
2023-04-18T02:50:57.997Z,35.00
2023-04-18T02:51:58.065Z,35.00
2023-04-18T02:52:58.101Z,35.00
2023-04-18T02:53:58.121Z,35.03
2023-04-18T02:54:58.080Z,34.97
2023-04-18T02:55:58.149Z,34.87
2023-04-18T02:56:58.145Z,34.90
2023-04-18T02:57:58.169Z,34.96
2023-04-18T02:58:58.225Z,34.90
2023-04-18T02:59:58.232Z,34.96
2023-04-18T03:00:58.302Z,34.95
2023-04-18T03:01:58.311Z,34.95
2023-04-18T03:02:58.428Z,34.88
2023-04-18T03:03:58.352Z,34.90
2023-04-18T03:04:58.436Z,34.88
2023-04-18T03:05:58.384Z,34.83
2023-04-18T03:06:58.430Z,34.87
2023-04-18T03:07:58.469Z,34.81
2023-04-18T03:08:58.487Z,34.87
2023-04-18T03:09:58.522Z,34.87
2023-04-18T03:10:58.576Z,34.85
2023-04-18T03:11:58.554Z,34.77
2023-04-18T03:12:58.602Z,34.82
2023-04-18T03:13:58.618Z,34.81
2023-04-18T03:14:58.655Z,34.79
2023-04-18T03:15:58.738Z,34.82
2023-04-18T03:16:58.719Z,34.74
2023-04-18T03:17:58.714Z,34.73
2023-04-18T03:18:58.791Z,34.73
2023-04-18T03:19:58.818Z,34.71
2023-04-18T03:20:58.779Z,34.72
2023-04-18T03:21:58.844Z,34.69
2023-04-18T03:22:58.888Z,34.70
2023-04-18T03:23:58.891Z,34.73
2023-04-18T03:24:58.973Z,34.72
2023-04-18T03:25:58.995Z,34.67
2023-04-18T03:26:59.000Z,34.66
2023-04-18T03:27:59.029Z,34.68
2023-04-18T03:28:59.065Z,34.67
2023-04-18T03:29:59.110Z,34.65
2023-04-18T03:30:59.138Z,34.64
2023-04-18T03:31:59.165Z,34.59
2023-04-18T03:32:59.239Z,34.59
2023-04-18T03:33:59.222Z,34.57
2023-04-18T03:34:59.222Z,34.63
2023-04-18T03:35:59.263Z,34.63
2023-04-18T03:36:59.297Z,34.60
2023-04-18T03:37:59.297Z,34.55
2023-04-18T03:38:59.333Z,34.58
2023-04-18T03:39:59.342Z,34.53
2023-04-18T03:40:59.388Z,34.55
2023-04-18T03:41:59.423Z,34.59
2023-04-18T03:42:59.468Z,34.56
2023-04-18T03:43:59.470Z,34.57
2023-04-18T03:44:59.511Z,34.56
2023-04-18T03:45:59.573Z,34.49
2023-04-18T03:46:59.577Z,34.49
2023-04-18T03:47:59.669Z,34.55
2023-04-18T03:48:59.612Z,34.50
2023-04-18T03:49:59.649Z,34.55
2023-04-18T03:50:59.676Z,34.54
2023-04-18T03:51:59.717Z,34.47
2023-04-18T03:52:59.744Z,34.45
2023-04-18T03:53:59.801Z,34.46
2023-04-18T03:54:59.806Z,34.46
2023-04-18T03:55:59.812Z,34.49
2023-04-18T03:56:59.814Z,34.51
2023-04-18T03:57:59.867Z,34.47
2023-04-18T03:58:59.927Z,34.46
2023-04-18T03:59:59.926Z,34.45
2023-04-18T04:01:00.003Z,34.45
2023-04-18T04:02:00.195Z,34.36
2023-04-18T04:03:00.221Z,34.42
2023-04-18T04:04:00.274Z,34.40
2023-04-18T04:05:00.181Z,34.39
2023-04-18T04:06:00.133Z,34.43
2023-04-18T04:07:00.178Z,34.37
2023-04-18T04:08:00.162Z,34.32
2023-04-18T04:09:00.204Z,34.37
2023-04-18T04:10:00.267Z,34.41
2023-04-18T04:11:00.282Z,34.43
2023-04-18T04:12:00.318Z,34.38
2023-04-18T04:13:00.333Z,34.37
2023-04-18T04:14:00.356Z,34.31
2023-04-18T04:15:00.473Z,34.35
2023-04-18T04:16:00.487Z,34.36
2023-04-18T04:17:00.421Z,34.27
2023-04-18T04:18:00.531Z,34.29
2023-04-18T04:19:00.506Z,34.18
2023-04-18T04:20:00.600Z,34.27
2023-04-18T04:21:00.594Z,34.21
2023-04-18T04:22:00.621Z,34.28
2023-04-18T04:23:00.653Z,34.23
2023-04-18T04:24:00.680Z,34.19
2023-04-18T04:25:00.745Z,34.10
2023-04-18T04:26:00.745Z,34.15
2023-04-18T04:27:00.819Z,34.14
2023-04-18T04:28:00.825Z,34.14
2023-04-18T04:29:00.876Z,34.10
2023-04-18T04:30:00.895Z,34.18
2023-04-18T04:31:00.945Z,34.10
2023-04-18T04:32:00.980Z,34.12
2023-04-18T04:33:01.051Z,34.04
2023-04-18T04:34:01.048Z,34.11
2023-04-18T04:35:01.090Z,34.07
2023-04-18T04:36:01.116Z,34.03
2023-04-18T04:37:01.136Z,34.09
2023-04-18T04:38:01.200Z,34.00
2023-04-18T04:39:01.259Z,34.03
2023-04-18T04:40:01.279Z,34.02
2023-04-18T04:41:01.262Z,34.01
2023-04-18T04:42:01.334Z,34.08
2023-04-18T04:43:01.337Z,34.06
2023-04-18T04:44:01.391Z,34.04
2023-04-18T04:45:01.543Z,33.99
2023-04-18T04:46:01.539Z,33.96
2023-04-18T04:47:01.489Z,34.00
2023-04-18T04:48:01.626Z,33.99
2023-04-18T04:49:01.607Z,33.95
2023-04-18T04:50:01.626Z,33.98
2023-04-18T04:51:01.643Z,34.06
2023-04-18T04:52:02.142Z,34.39
2023-04-18T04:53:01.790Z,35.31
2023-04-18T04:54:01.806Z,36.11
2023-04-18T04:55:01.839Z,36.23
2023-04-18T04:56:01.898Z,36.90
2023-04-18T04:57:01.857Z,37.63
2023-04-18T04:58:01.858Z,38.35
2023-04-18T04:59:01.865Z,38.63
2023-04-18T05:00:01.874Z,39.19
2023-04-18T05:01:02.728Z,39.55
2023-04-18T05:02:01.961Z,39.82
2023-04-18T05:03:02.223Z,40.00
2023-04-18T05:04:02.069Z,40.27
2023-04-18T05:05:01.965Z,40.49
2023-04-18T05:06:01.988Z,40.87
2023-04-18T05:07:02.053Z,41.01
2023-04-18T05:08:02.139Z,41.32
2023-04-18T05:09:02.186Z,41.81
2023-04-18T05:10:02.247Z,42.41
2023-04-18T05:11:02.360Z,42.38
2023-04-18T05:12:02.373Z,42.78
2023-04-18T05:13:02.405Z,43.11
2023-04-18T05:14:02.475Z,43.30
2023-04-18T05:15:02.565Z,43.66
2023-04-18T05:16:02.600Z,43.59
2023-04-18T05:17:02.745Z,43.81
2023-04-18T05:18:02.796Z,44.09
2023-04-18T05:19:02.781Z,44.09
2023-04-18T05:20:02.881Z,44.13
2023-04-18T05:21:02.896Z,44.22
2023-04-18T05:22:02.976Z,44.25
2023-04-18T05:23:03.006Z,44.57
2023-04-18T05:24:03.102Z,44.68
2023-04-18T05:25:03.150Z,45.07
2023-04-18T05:26:03.205Z,45.21
2023-04-18T05:27:03.266Z,45.30
2023-04-18T05:28:03.301Z,45.71
2023-04-18T05:29:03.373Z,45.50
2023-04-18T05:30:03.437Z,45.90
2023-04-18T05:31:03.565Z,45.91
2023-04-18T05:32:03.453Z,45.52
2023-04-18T05:33:03.528Z,45.64
2023-04-18T05:34:03.619Z,45.65
2023-04-18T05:35:03.515Z,42.12
2023-04-18T05:36:03.557Z,42.44
2023-04-18T05:37:03.596Z,42.63
2023-04-18T05:38:03.627Z,42.96
2023-04-18T05:39:03.692Z,42.96
2023-04-18T05:40:03.713Z,42.46
2023-04-18T05:41:03.692Z,42.84
2023-04-18T05:42:03.828Z,42.87
2023-04-18T05:43:03.689Z,41.82
2023-04-18T05:44:05.655Z,42.38
2023-04-18T05:45:04.230Z,42.73
2023-04-18T05:46:03.754Z,43.46
2023-04-18T05:47:03.765Z,43.21
2023-04-18T05:48:03.818Z,42.94
2023-04-18T05:49:03.752Z,43.60
2023-04-18T05:50:03.781Z,42.75
2023-04-18T05:51:03.777Z,42.86
2023-04-18T05:52:03.833Z,42.79
2023-04-18T05:53:03.838Z,42.32
2023-04-18T05:54:03.837Z,41.18
2023-04-18T05:55:03.862Z,42.44
2023-04-18T05:56:03.857Z,42.43
2023-04-18T05:57:04.791Z,44.24
2023-04-18T05:58:03.833Z,43.54
2023-04-18T05:59:03.880Z,43.85
2023-04-18T06:00:03.939Z,44.34
2023-04-18T06:01:03.983Z,44.67
2023-04-18T06:02:04.067Z,45.28
2023-04-18T06:03:04.204Z,45.69
2023-04-18T06:04:04.249Z,45.75
2023-04-18T06:05:04.467Z,46.36
2023-04-18T06:06:04.250Z,46.31
2023-04-18T06:07:04.328Z,46.64
2023-04-18T06:08:04.402Z,46.86
2023-04-18T06:09:04.458Z,46.87
2023-04-18T06:10:04.541Z,46.87
2023-04-18T06:11:04.585Z,47.32
2023-04-18T06:12:04.709Z,47.58
2023-04-18T06:13:04.679Z,47.58
2023-04-18T06:14:04.760Z,47.76
2023-04-18T06:15:04.793Z,47.74
2023-04-18T06:16:05.019Z,47.79
2023-04-18T06:17:04.960Z,48.58
2023-04-18T06:18:05.249Z,48.06
2023-04-18T06:19:05.132Z,48.27
2023-04-18T06:20:05.145Z,48.37
2023-04-18T06:21:05.159Z,48.64
2023-04-18T06:22:05.202Z,48.62
2023-04-18T06:23:05.375Z,48.42
2023-04-18T06:24:05.351Z,48.40
2023-04-18T06:25:05.421Z,48.29
2023-04-18T06:26:05.467Z,48.35
2023-04-18T06:27:05.499Z,48.62
2023-04-18T06:28:05.564Z,48.31
2023-04-18T06:29:05.608Z,48.38
2023-04-18T06:30:05.682Z,48.54
2023-04-18T06:31:05.766Z,48.47
2023-04-18T06:32:05.784Z,48.44
2023-04-18T06:33:05.915Z,48.74
2023-04-18T06:34:05.870Z,49.08
2023-04-18T06:35:05.977Z,49.52
2023-04-18T06:36:06.012Z,49.71
2023-04-18T06:37:06.061Z,49.65
2023-04-18T06:38:06.111Z,49.65
2023-04-18T06:39:06.259Z,49.70
2023-04-18T06:40:06.235Z,49.96
2023-04-18T06:41:06.303Z,49.85
2023-04-18T06:42:06.337Z,49.83
2023-04-18T06:43:06.379Z,49.80
2023-04-18T06:44:06.487Z,49.81
2023-04-18T06:45:06.854Z,49.41
2023-04-18T06:46:06.678Z,49.47
2023-04-18T06:47:06.633Z,48.81
2023-04-18T06:48:06.689Z,50.18
2023-04-18T06:49:06.732Z,51.00
2023-04-18T06:50:06.830Z,49.87
2023-04-18T06:51:06.830Z,50.93
2023-04-18T06:52:06.947Z,50.80
2023-04-18T06:53:07.010Z,51.01
2023-04-18T06:54:07.037Z,50.62
2023-04-18T06:55:07.097Z,50.74
2023-04-18T06:56:07.177Z,50.65
2023-04-18T06:57:07.229Z,50.75
2023-04-18T06:58:07.249Z,50.93
2023-04-18T06:59:07.329Z,51.00
2023-04-18T07:00:07.359Z,51.27
2023-04-18T07:01:07.437Z,50.97
2023-04-18T07:02:07.481Z,51.55
2023-04-18T07:03:09.515Z,51.42
2023-04-18T07:04:07.515Z,51.38
2023-04-18T07:05:07.856Z,51.55
2023-04-18T07:06:07.474Z,51.60
2023-04-18T07:07:07.474Z,51.72
2023-04-18T07:08:07.483Z,51.74
2023-04-18T07:09:07.456Z,51.70
2023-04-18T07:10:07.482Z,51.53
2023-04-18T07:11:07.584Z,51.73
2023-04-18T07:12:07.477Z,51.45
2023-04-18T07:13:07.429Z,51.53
2023-04-18T07:14:07.485Z,51.72
2023-04-18T07:15:07.421Z,51.78
2023-04-18T07:16:07.413Z,51.64
2023-04-18T07:17:07.614Z,51.17
2023-04-18T07:18:07.474Z,51.11
2023-04-18T07:19:07.440Z,51.23
2023-04-18T07:20:07.396Z,51.14
2023-04-18T07:21:07.719Z,51.07
2023-04-18T07:22:07.406Z,51.31
2023-04-18T07:23:07.439Z,51.40
2023-04-18T07:24:07.356Z,51.47
2023-04-18T07:25:07.412Z,51.33
2023-04-18T07:26:07.383Z,51.24
2023-04-18T07:27:07.627Z,51.42
2023-04-18T07:28:07.405Z,51.01
2023-04-18T07:29:07.366Z,51.13
2023-04-18T07:30:07.391Z,51.13
2023-04-18T07:31:07.427Z,51.24
2023-04-18T07:32:08.468Z,51.62
2023-04-18T07:33:07.390Z,51.95
2023-04-18T07:34:07.411Z,51.90
2023-04-18T07:35:07.392Z,51.74
2023-04-18T07:36:07.350Z,51.56
2023-04-18T07:37:07.388Z,51.40
2023-04-18T07:38:07.447Z,51.38
2023-04-18T07:39:07.455Z,51.08
2023-04-18T07:40:07.514Z,51.38
2023-04-18T07:41:07.583Z,50.94
2023-04-18T07:42:08.232Z,50.84
2023-04-18T07:43:07.781Z,48.48
2023-04-18T07:44:07.789Z,47.98
2023-04-18T07:45:07.787Z,46.51
2023-04-18T07:46:08.286Z,48.16
2023-04-18T07:47:07.951Z,47.61
2023-04-18T07:48:08.013Z,48.27
2023-04-18T07:49:08.029Z,48.71
2023-04-18T07:50:08.065Z,48.88
2023-04-18T07:51:08.152Z,49.34
2023-04-18T07:52:08.139Z,49.86
2023-04-18T07:53:08.201Z,50.04
2023-04-18T07:54:08.232Z,50.19
2023-04-18T07:55:08.271Z,50.39
2023-04-18T07:56:08.348Z,50.47
2023-04-18T07:57:08.325Z,50.50
2023-04-18T07:58:08.358Z,50.62
2023-04-18T07:59:08.612Z,50.83
2023-04-18T08:00:08.406Z,49.58
2023-04-18T08:01:08.434Z,49.48
2023-04-18T08:02:08.530Z,49.72
2023-04-18T08:03:08.750Z,50.29
2023-04-18T08:04:08.695Z,49.89
2023-04-18T08:05:08.714Z,50.41
2023-04-18T08:06:08.658Z,50.52
2023-04-18T08:07:08.666Z,50.79
2023-04-18T08:08:08.699Z,50.07
2023-04-18T08:09:08.759Z,50.34
2023-04-18T08:10:08.787Z,49.77
2023-04-18T08:11:08.857Z,50.41
2023-04-18T08:12:08.888Z,50.45
2023-04-18T08:13:08.908Z,49.70
2023-04-18T08:14:08.950Z,49.91
2023-04-18T08:15:08.992Z,50.37
2023-04-18T08:16:09.146Z,51.06
2023-04-18T08:17:09.069Z,51.19
2023-04-18T08:18:09.105Z,51.37
2023-04-18T08:19:09.149Z,50.85
2023-04-18T08:20:09.256Z,51.14
2023-04-18T08:21:09.266Z,50.95
2023-04-18T08:22:09.217Z,51.02
2023-04-18T08:23:12.198Z,50.72
2023-04-18T08:24:09.257Z,49.71
2023-04-18T08:25:09.250Z,50.60
2023-04-18T08:26:09.270Z,51.45
2023-04-18T08:27:09.279Z,51.47
2023-04-18T08:28:09.272Z,51.58
2023-04-18T08:29:09.238Z,51.74
2023-04-18T08:30:09.252Z,50.88
2023-04-18T08:31:09.329Z,51.33
2023-04-18T08:32:09.274Z,51.15
2023-04-18T08:33:09.244Z,51.73
2023-04-18T08:34:09.193Z,52.14
2023-04-18T08:35:09.254Z,52.28
2023-04-18T08:36:09.277Z,52.25
2023-04-18T08:37:09.187Z,52.04
2023-04-18T08:38:09.217Z,51.09
2023-04-18T08:39:09.202Z,50.81
2023-04-18T08:40:09.189Z,51.52
2023-04-18T08:41:09.179Z,51.16
2023-04-18T08:42:09.210Z,50.85
2023-04-18T08:43:09.225Z,50.73
2023-04-18T08:44:09.205Z,51.37
2023-04-18T08:45:09.235Z,51.74
2023-04-18T08:46:09.300Z,51.35
2023-04-18T08:47:09.130Z,52.29
2023-04-18T08:48:09.208Z,52.28
2023-04-18T08:49:11.365Z,51.89
2023-04-18T08:50:09.160Z,51.51
2023-04-18T08:51:09.306Z,52.15
2023-04-18T08:52:09.181Z,50.86
2023-04-18T08:53:09.114Z,50.95
2023-04-18T08:54:09.115Z,51.55
2023-04-18T08:55:09.081Z,51.83
2023-04-18T08:56:09.280Z,52.27
2023-04-18T08:57:09.098Z,51.90
2023-04-18T08:58:09.126Z,51.77
2023-04-18T08:59:09.057Z,51.73
2023-04-18T09:00:09.063Z,51.71
2023-04-18T09:01:09.094Z,52.18
2023-04-18T09:02:09.181Z,51.88
2023-04-18T09:03:09.119Z,51.74
2023-04-18T09:04:09.051Z,51.98
2023-04-18T09:05:09.034Z,52.17
2023-04-18T09:06:09.013Z,52.24
2023-04-18T09:07:09.015Z,52.07
2023-04-18T09:08:09.022Z,51.80
2023-04-18T09:09:09.009Z,51.75
2023-04-18T09:10:09.221Z,51.93
2023-04-18T09:11:09.002Z,51.22
2023-04-18T09:12:08.988Z,50.71
2023-04-18T09:13:09.014Z,51.62
2023-04-18T09:14:08.990Z,51.04
2023-04-18T09:15:08.998Z,50.83
2023-04-18T09:16:09.037Z,51.44
2023-04-18T09:17:08.947Z,51.76
2023-04-18T09:18:09.016Z,50.91
2023-04-18T09:19:08.972Z,50.76
2023-04-18T09:20:09.772Z,50.96
2023-04-18T09:21:08.960Z,50.97
2023-04-18T09:22:08.920Z,51.37
2023-04-18T09:23:08.917Z,49.81
2023-04-18T09:24:08.937Z,50.40
2023-04-18T09:25:08.885Z,50.77
2023-04-18T09:26:08.876Z,51.00
2023-04-18T09:27:08.890Z,50.51
2023-04-18T09:28:08.880Z,50.77
2023-04-18T09:29:08.893Z,50.87
2023-04-18T09:30:08.830Z,48.65
2023-04-18T09:31:09.402Z,48.56
2023-04-18T09:32:08.823Z,49.68
2023-04-18T09:33:08.825Z,49.19
2023-04-18T09:34:08.840Z,48.26
2023-04-18T09:35:08.846Z,49.53
2023-04-18T09:36:09.287Z,49.10
2023-04-18T09:37:08.844Z,49.40
2023-04-18T09:38:08.794Z,49.68
2023-04-18T09:39:08.773Z,47.11
2023-04-18T09:40:08.788Z,47.69
2023-04-18T09:41:08.754Z,48.25
2023-04-18T09:42:08.773Z,48.71
2023-04-18T09:43:08.758Z,49.07
2023-04-18T09:44:09.724Z,49.15
2023-04-18T09:45:08.718Z,49.39
2023-04-18T09:46:08.907Z,49.58
2023-04-18T09:47:08.711Z,49.26
2023-04-18T09:48:08.765Z,48.92
2023-04-18T09:49:10.935Z,48.92
2023-04-18T09:50:08.707Z,48.96
2023-04-18T09:51:08.696Z,49.05
2023-04-18T09:52:08.737Z,49.05
2023-04-18T09:53:08.785Z,49.26
2023-04-18T09:54:08.813Z,49.16
2023-04-18T09:55:08.850Z,49.48
2023-04-18T09:56:08.912Z,49.31
2023-04-18T09:57:08.983Z,49.12
2023-04-18T09:58:08.929Z,49.34
2023-04-18T09:59:08.955Z,49.52
2023-04-18T10:00:08.880Z,49.40
2023-04-18T10:01:08.917Z,48.55
2023-04-18T10:02:08.936Z,46.42
2023-04-18T10:03:08.980Z,48.60
2023-04-18T10:04:08.925Z,48.51
2023-04-18T10:05:08.948Z,48.55
2023-04-18T10:06:08.933Z,48.09
2023-04-18T10:07:08.947Z,47.62
2023-04-18T10:08:08.918Z,47.13
2023-04-18T10:09:08.890Z,47.64
2023-04-18T10:10:08.953Z,48.87
2023-04-18T10:11:09.294Z,49.86
2023-04-18T10:12:08.940Z,49.10
2023-04-18T10:13:08.912Z,48.77
2023-04-18T10:14:08.888Z,49.30
2023-04-18T10:15:08.932Z,48.30
2023-04-18T10:16:08.946Z,46.41
2023-04-18T10:17:09.318Z,46.62
2023-04-18T10:18:08.997Z,47.94
2023-04-18T10:19:08.960Z,47.38
2023-04-18T10:20:08.975Z,47.81
2023-04-18T10:21:09.026Z,47.30
2023-04-18T10:22:09.044Z,48.76
2023-04-18T10:23:09.019Z,48.41
2023-04-18T10:24:09.008Z,47.17
2023-04-18T10:25:09.023Z,46.61
2023-04-18T10:26:09.027Z,47.59
2023-04-18T10:27:09.054Z,46.88
2023-04-18T10:28:09.116Z,48.54
2023-04-18T10:29:09.084Z,47.75
2023-04-18T10:30:09.267Z,48.32
2023-04-18T10:31:09.102Z,48.96
2023-04-18T10:32:09.102Z,49.21
2023-04-18T10:33:18.356Z,47.93
2023-04-18T10:34:10.120Z,48.68
2023-04-18T10:35:09.057Z,47.74
2023-04-18T10:36:09.086Z,47.32
2023-04-18T10:37:09.336Z,47.55
2023-04-18T10:38:09.034Z,47.31
2023-04-18T10:39:09.136Z,47.70
2023-04-18T10:40:09.039Z,48.05
2023-04-18T10:41:09.038Z,48.68
2023-04-18T10:42:09.033Z,48.79
2023-04-18T10:43:09.020Z,48.46
2023-04-18T10:44:09.203Z,48.37
2023-04-18T10:45:09.008Z,48.66
2023-04-18T10:46:20.197Z,48.95
2023-04-18T10:47:10.026Z,49.65
2023-04-18T10:48:08.997Z,49.74
2023-04-18T10:49:09.011Z,49.87
2023-04-18T10:50:09.118Z,49.69
2023-04-18T10:51:08.955Z,49.57
2023-04-18T10:52:08.938Z,49.70
2023-04-18T10:53:08.954Z,49.21
2023-04-18T10:54:08.948Z,48.71
2023-04-18T10:55:08.913Z,48.54
2023-04-18T10:56:08.953Z,48.33
2023-04-18T10:57:09.046Z,47.82
2023-04-18T10:58:09.068Z,47.62
2023-04-18T10:59:09.046Z,47.62
2023-04-18T11:00:09.118Z,47.74
2023-04-18T11:01:09.145Z,48.21
2023-04-18T11:02:09.235Z,48.67
2023-04-18T11:03:09.354Z,48.15
2023-04-18T11:04:09.332Z,47.96
2023-04-18T11:05:09.310Z,47.86
2023-04-18T11:06:09.329Z,47.63
2023-04-18T11:07:09.391Z,47.48
2023-04-18T11:08:09.423Z,47.09
2023-04-18T11:09:09.468Z,46.85
2023-04-18T11:10:09.526Z,46.68
2023-04-18T11:11:09.615Z,46.68
2023-04-18T11:12:09.671Z,46.42
2023-04-18T11:13:09.712Z,46.08
2023-04-18T11:14:09.740Z,45.99
2023-04-18T11:15:09.804Z,46.08
2023-04-18T11:16:09.842Z,46.15
2023-04-18T11:17:09.900Z,46.27
2023-04-18T11:18:09.963Z,46.52
2023-04-18T11:19:09.948Z,46.65
2023-04-18T11:20:09.978Z,46.67
2023-04-18T11:21:10.038Z,46.83
2023-04-18T11:22:10.338Z,46.75
2023-04-18T11:23:10.097Z,46.79
2023-04-18T11:24:10.108Z,46.77
2023-04-18T11:25:10.149Z,46.70
2023-04-18T11:26:10.213Z,46.63
2023-04-18T11:27:10.416Z,46.62
2023-04-18T11:28:10.352Z,46.42
2023-04-18T11:29:10.447Z,45.96
2023-04-18T11:30:10.435Z,45.83
2023-04-18T11:31:10.415Z,46.02
2023-04-18T11:32:10.895Z,45.84
2023-04-18T11:33:10.484Z,46.19
2023-04-18T11:34:10.475Z,44.99
2023-04-18T11:35:10.519Z,45.27
2023-04-18T11:36:10.552Z,44.37
2023-04-18T11:37:10.855Z,45.40
2023-04-18T11:38:10.664Z,45.98
2023-04-18T11:39:10.697Z,45.96
2023-04-18T11:40:10.733Z,46.33
2023-04-18T11:41:10.824Z,45.78
2023-04-18T11:42:10.875Z,46.11
2023-04-18T11:43:10.965Z,46.48
2023-04-18T11:44:10.970Z,46.80
2023-04-18T11:45:11.013Z,47.05
2023-04-18T11:46:11.115Z,47.18
2023-04-18T11:47:11.139Z,47.00
2023-04-18T11:48:11.186Z,47.02
2023-04-18T11:49:11.266Z,47.12
2023-04-18T11:50:11.306Z,47.14
2023-04-18T11:51:11.321Z,47.15
2023-04-18T11:52:11.383Z,47.22
2023-04-18T11:53:11.455Z,47.13
2023-04-18T11:54:11.641Z,47.30
2023-04-18T11:55:11.521Z,47.03
2023-04-18T11:56:11.609Z,47.83
2023-04-18T11:57:11.880Z,47.76
2023-04-18T11:58:11.702Z,47.67
2023-04-18T11:59:11.863Z,47.66
2023-04-18T12:00:11.870Z,47.32
2023-04-18T12:01:11.891Z,47.58
2023-04-18T12:02:16.831Z,47.42
2023-04-18T12:03:14.121Z,47.52
2023-04-18T12:04:12.074Z,47.35
2023-04-18T12:05:12.247Z,47.50
2023-04-18T12:06:12.014Z,47.43
2023-04-18T12:07:12.114Z,47.53
2023-04-18T12:08:12.159Z,47.67
2023-04-18T12:09:12.187Z,47.92
2023-04-18T12:10:12.217Z,48.09
2023-04-18T12:11:12.251Z,48.26
2023-04-18T12:12:12.322Z,48.18
2023-04-18T12:13:12.416Z,48.46
2023-04-18T12:14:12.603Z,48.60
2023-04-18T12:15:12.481Z,48.60
2023-04-18T12:16:12.585Z,48.20
2023-04-18T12:17:12.854Z,47.92
2023-04-18T12:18:12.587Z,48.47
2023-04-18T12:19:12.650Z,48.20
2023-04-18T12:20:12.680Z,48.38
2023-04-18T12:21:12.730Z,48.09
2023-04-18T12:22:12.843Z,47.79
2023-04-18T12:23:12.861Z,47.43
2023-04-18T12:24:13.149Z,47.13
2023-04-18T12:25:12.928Z,47.60
2023-04-18T12:26:13.018Z,48.02
2023-04-18T12:27:13.092Z,47.74
2023-04-18T12:28:13.104Z,47.11
2023-04-18T12:29:13.500Z,47.06
2023-04-18T12:30:13.323Z,47.31
2023-04-18T12:31:13.425Z,47.27
2023-04-18T12:32:13.344Z,47.75
2023-04-18T12:33:13.385Z,47.86
2023-04-18T12:34:13.648Z,47.92
2023-04-18T12:35:13.484Z,47.80
2023-04-18T12:36:13.561Z,47.50
2023-04-18T12:37:13.598Z,47.25
2023-04-18T12:38:13.647Z,47.02
2023-04-18T12:39:13.719Z,46.98
2023-04-18T12:40:13.836Z,47.11
2023-04-18T12:41:13.782Z,47.64
2023-04-18T12:42:13.850Z,48.04
2023-04-18T12:43:13.878Z,47.77
2023-04-18T12:44:14.082Z,48.27
2023-04-18T12:45:13.976Z,48.12
2023-04-18T12:46:14.041Z,48.50
2023-04-18T12:47:14.142Z,48.43
2023-04-18T12:48:14.157Z,48.23
2023-04-18T12:49:14.208Z,47.96
2023-04-18T12:50:14.264Z,48.16
2023-04-18T12:51:14.303Z,48.09
2023-04-18T12:52:14.330Z,48.03
2023-04-18T12:53:14.388Z,48.05